Home > Products > Valid Products > MTR

000
SAUS44 KMAF 041054
MTR6R6
METAR K6R6 041053Z AUTO VRB04KT 23/20 A2996 RMK AO1 SLP108 T02330200





000
SAUS44 KMAF 041054
MTR6R6
METAR K6R6 041053Z AUTO VRB04KT 23/20 A2996 RMK AO1 SLP108 T02330200





000
SAUS44 KMAF 040954
MTR6R6
METAR K6R6 040953Z AUTO 00000KT 24/20 A2996 RMK AO1 SLP107 T02390200





000
SAUS44 KMAF 040854
MTR6R6
METAR K6R6 040853Z AUTO 17008KT 24/21 A2995 RMK AO1 SLP103 T02440206
56008





000
SAUS44 KMAF 040854
MTR6R6
METAR K6R6 040853Z AUTO 17008KT 24/21 A2995 RMK AO1 SLP103 T02440206
56008





000
SAUS44 KMAF 040754
MTR6R6
METAR K6R6 040753Z AUTO 11007KT 25/21 A2995 RMK AO1 SLP104 T02500206





000
SAUS44 KMAF 040754
MTR6R6
METAR K6R6 040753Z AUTO 11007KT 25/21 A2995 RMK AO1 SLP104 T02500206





000
SAUS44 KMAF 040654
MTR6R6
METAR K6R6 040653Z AUTO 11006G15KT 26/19 A2996 RMK AO1 SLP107
T02560194





000
SAUS44 KMAF 040554
MTR6R6
METAR K6R6 040553Z AUTO 11007KT 27/19 A2998 RMK AO1 SLP113 T02670189
10311 20267 403220228 51015





000
SAUS44 KMAF 040454
MTR6R6
METAR K6R6 040453Z AUTO VRB04KT 27/19 A2997 RMK AO1 SLP113 T02720189





000
SAUS44 KMAF 040354
MTR6R6
METAR K6R6 040353Z AUTO 11006KT 28/19 A2995 RMK AO1 SLP104 T02780189





000
SAUS44 KMAF 040254
MTR6R6
METAR K6R6 040253Z AUTO 10005KT 28/18 A2993 RMK AO1 SLP098 T02830183
53005





000
SAUS44 KMAF 040154
MTR6R6
METAR K6R6 040153Z AUTO 13004KT 29/18 A2992 RMK AO1 SLP095 T02890183





000
SAUS44 KMAF 040054
MTR6R6
METAR K6R6 040053Z AUTO 15010G16KT 30/19 A2991 RMK AO1 SLP090
T03000189





000
SAUS44 KMAF 040054
MTR6R6
METAR K6R6 040053Z AUTO 15010G16KT 30/19 A2991 RMK AO1 SLP090
T03000189





000
SAUS44 KMAF 032354
MTR6R6
METAR K6R6 032353Z AUTO 12007KT 31/18 A2991 RMK AO1 SLP092 T03060183
10322 20272 56010





000
SAUS44 KMAF 032254
MTR6R6
METAR K6R6 032253Z AUTO 07012KT 32/19 A2991 RMK AO1 SLP092 T03170189





000
SAUS44 KMAF 032154
MTR6R6
METAR K6R6 032153Z AUTO 13008KT 31/19 A2993 RMK AO1 SLP096 T03110189





000
SAUS44 KMAF 032054
MTR6R6
METAR K6R6 032053Z AUTO VRB06KT 31/19 A2994 RMK AO1 SLP101 T03110189
56017





000
SAUS44 KMAF 032054
MTR6R6
METAR K6R6 032053Z AUTO VRB06KT 31/19 A2994 RMK AO1 SLP101 T03110189
56017





000
SAUS44 KMAF 031954
MTR6R6
METAR K6R6 031953Z AUTO VRB05KT 30/19 A2996 RMK AO1 SLP109 T03000194





000
SAUS44 KMAF 031954
MTR6R6
METAR K6R6 031953Z AUTO VRB05KT 30/19 A2996 RMK AO1 SLP109 T03000194





000
SAUS44 KMAF 031854
MTR6R6
METAR K6R6 031853Z AUTO VRB05KT 29/19 A2997 RMK AO1 SLP112 T02940194





000
SAUS44 KMAF 031754
MTR6R6
METAR K6R6 031753Z AUTO VRB06KT 27/20 A3000 RMK AO1 SLP120 T02720200
10272 20228 58001





000
SAUS44 KMAF 031654
MTR6R6
METAR K6R6 031653Z AUTO VRB06KT 25/19 A3000 RMK AO1 SLP125 T02500194





000
SAUS44 KMAF 031554
MTR6R6
METAR K6R6 031553Z AUTO VRB03KT 24/19 A3000 RMK AO1 SLP122 T02390194





000
SAUS44 KMAF 031454
MTR6R6
METAR K6R6 031453Z AUTO VRB04KT 23/20 A3000 RMK AO1 SLP123 T02330200
53012





000
SAUS44 KMAF 031358 COR
MTRGDP
METAR KGDP 031351Z AUTO 05013KT 9SM BKN075 21/16 A3018 RMK AO2
SLP137 T02060161





000
SAUS44 KMAF 031358 COR
MTRGDP
METAR KGDP 031351Z AUTO 05013KT 9SM BKN075 21/16 A3018 RMK AO2
SLP137 T02060161





000
SAUS44 KMAF 031354
MTR6R6
METAR K6R6 031353Z AUTO 14006KT 23/20 A2999 RMK AO1 SLP120 T02280200





000
SAUS44 KMAF 031255
MTR6R6
METAR K6R6 031253Z AUTO 14006KT 23/20 A2997 RMK AO1 SLP112 T02280200





000
SAUS44 KMAF 031154
MTR6R6
METAR K6R6 031153Z AUTO 29003KT 23/19 A2996 RMK AO1 SLP108 T02280194
10256 20228 52007





000
SAUS44 KMAF 031054
MTR6R6
METAR K6R6 031053Z AUTO VRB05KT 23/19 A2995 RMK AO1 SLP104 T02280194





000
SAUS44 KMAF 031054
MTR6R6
METAR K6R6 031053Z AUTO VRB05KT 23/19 A2995 RMK AO1 SLP104 T02280194





000
SAUS44 KMAF 030954
MTR6R6
METAR K6R6 030953Z AUTO VRB05KT 23/19 A2995 RMK AO1 SLP103 T02330194





000
SAUS44 KMAF 030854
MTR6R6
METAR K6R6 030853Z AUTO VRB05KT 24/19 A2994 RMK AO1 SLP099 T02390194
50000





000
SAUS44 KMAF 030754
MTR6R6
METAR K6R6 030753Z AUTO 09007KT 070V130 24/20 A2994 RMK AO1 SLP102
T02390200





000
SAUS44 KMAF 030754
MTR6R6
METAR K6R6 030753Z AUTO 09007KT 070V130 24/20 A2994 RMK AO1 SLP102
T02390200





000
SAUS44 KMAF 030654
MTR6R6
METAR K6R6 030653Z AUTO VRB05KT 26/19 A2994 RMK AO1 SLP099 T02560189





000
SAUS44 KMAF 030554
MTR6R6
METAR K6R6 030553Z AUTO VRB04KT 26/18 A2994 RMK AO1 SLP099 T02560183
10306 20256 403220200 50006





000
SAUS44 KMAF 030554
MTR6R6
METAR K6R6 030553Z AUTO VRB04KT 26/18 A2994 RMK AO1 SLP099 T02560183
10306 20256 403220200 50006





000
SAUS44 KMAF 030501 COR
MTRGDP
METAR KGDP 030451Z AUTO 05023KT 10SM FEW095 FEW120 23/11 A3013 RMK
AO2 PK WND 05032/0359 SLP113 T02330111





000
SAUS44 KMAF 030501 COR
MTRGDP
METAR KGDP 030451Z AUTO 05023KT 10SM FEW095 FEW120 23/11 A3013 RMK
AO2 PK WND 05032/0359 SLP113 T02330111





000
SAUS44 KMAF 030459 COR
MTRGDP
METAR KGDP 030451Z AUTO 05023KT 10SM FEW095 FEW120 23/11 A3013 RMK
AO2 PK WND 05032/0359 SLP113 T02330111





000
SAUS44 KMAF 030458 COR
MTRGDP
METAR KGDP 030451Z AUTO 05023KT 10SM FEW095 FEW120 23/11 A3013 RMK
AO2 PK WND 05032/0359 SLP113 T02330111





000
SAUS44 KMAF 030454
MTR6R6
METAR K6R6 030453Z AUTO 04003KT 26/17 A2995 RMK AO1 SLP103 T02610172





000
SAUS44 KMAF 030354
MTR6R6
METAR K6R6 030353Z AUTO 27/17 A2994 RMK AO1 SLP099 T02720172





000
SAUS44 KMAF 030254
MTR6R6
METAR K6R6 030253Z AUTO VRB05KT 28/17 A2992 RMK AO1 SLP094 T02780172
53008





000
SAUS44 KMAF 030154
MTR6R6
METAR K6R6 030153Z AUTO 14008KT 28/18 A2990 RMK AO1 SLP090 T02830178





000
SAUS44 KMAF 030054
MTR6R6
METAR K6R6 030053Z AUTO 11009G19KT 29/19 A2989 RMK AO1 SLP087
T02940189





000
SAUS44 KMAF 022354
MTR6R6
METAR K6R6 022353Z AUTO 12011G22KT 30/19 A2989 RMK AO1 SLP088
T03000189 10322 20300 58014





000
SAUS44 KMAF 022254
MTR6R6
METAR K6R6 022253Z AUTO 10014G23KT 32/18 A2992 RMK AO1 SLP093
T03170183





000
SAUS44 KMAF 022154
MTR6R6
METAR K6R6 022153Z AUTO 13008KT 32/18 A2993 RMK AO1 SLP096 T03220183





000
SAUS44 KMAF 022154
MTR6R6
METAR K6R6 022153Z AUTO 13008KT 32/18 A2993 RMK AO1 SLP096 T03220183





000
SAUS44 KMAF 022054
MTR6R6
METAR K6R6 022053Z AUTO 10009G15KT 070V140 32/18 A2994 RMK AO1
SLP100 T03170183 55010





000
SAUS44 KMAF 021954
MTR6R6
METAR K6R6 021953Z AUTO 16010G14KT 31/18 A2994 RMK AO1 SLP099
T03110183





000
SAUS44 KMAF 021854
MTR6R6
METAR K6R6 021853Z AUTO 14008G18KT 31/19 A2996 RMK AO1 SLP106
T03110189





000
SAUS44 KMAF 021854
MTR6R6
METAR K6R6 021853Z AUTO 14008G18KT 31/19 A2996 RMK AO1 SLP106
T03110189





000
SAUS44 KMAF 021754
MTR6R6
METAR K6R6 021753Z AUTO 16007KT 350V290 30/19 A2997 RMK AO1 SLP111
T03000189 10300 20200 58012





000
SAUS44 KMAF 021754
MTR6R6
METAR K6R6 021753Z AUTO 16007KT 350V290 30/19 A2997 RMK AO1 SLP111
T03000189 10300 20200 58012





000
SAUS44 KMAF 021654
MTR6R6
METAR K6R6 021653Z AUTO VRB05KT 28/19 A3000 RMK AO1 SLP120 T02780194





000
SAUS44 KMAF 021559 COR
MTR6R6
METAR K6R6 021553Z AUTO VRB06KT 26/19 A3000 RMK AO1 SLP124 T02610189





000
SAUS44 KMAF 021554
MTR6R6
METAR K6R6 021553Z AUTO VRB06KT 26/19 A3000 RMK AO1 SLP124 T02610189





000
SAUS44 KMAF 021454
MTR6R6
METAR K6R6 021453Z AUTO 17009KT 24/19 A3001 RMK AO1 SLP126 T02390189
53008





000
SAUS44 KMAF 021354
MTR6R6
METAR K6R6 021353Z AUTO 15005KT 22/18 A3000 RMK AO1 SLP124 T02220183





000
SAUS44 KMAF 021354
MTR6R6
METAR K6R6 021353Z AUTO 15005KT 22/18 A3000 RMK AO1 SLP124 T02220183





000
SAUS44 KMAF 021254
MTR6R6
METAR K6R6 021253Z AUTO VRB03KT 21/18 A2999 RMK AO1 SLP120 T02110183





000
SAUS44 KMAF 021154
MTR6R6
METAR K6R6 021153Z AUTO VRB03KT 20/18 A2998 RMK AO1 SLP117 T02000178
10239 20200 53003





000
SAUS44 KMAF 021054
MTR6R6
METAR K6R6 021053Z AUTO VRB03KT 21/18 A2997 RMK AO1 SLP110 T02060178





000
SAUS44 KMAF 020954
MTR6R6
METAR K6R6 020953Z AUTO VRB04KT 21/18 A2996 RMK AO1 SLP109 T02110178





000
SAUS44 KMAF 020854
MTR6R6
METAR K6R6 020853Z AUTO VRB04KT 22/19 A2997 RMK AO1 SLP112 T02220189
56006





000
SAUS44 KMAF 020854
MTR6R6
METAR K6R6 020853Z AUTO VRB04KT 22/19 A2997 RMK AO1 SLP112 T02220189
56006





000
SAUS44 KMAF 020754
MTR6R6
METAR K6R6 020753Z AUTO VRB04KT 23/20 A2998 RMK AO1 SLP113 T02280200





000
SAUS44 KMAF 020654
MTR6R6
METAR K6R6 020653Z AUTO VRB05KT 23/20 A2998 RMK AO1 SLP115 T02330200





000
SAUS44 KMAF 020554
MTR6R6
METAR K6R6 020553Z AUTO 13006KT 24/20 A2999 RMK AO1 SLP119 T02390200
10311 20239 403330228 50006





000
SAUS44 KMAF 020554
MTR6R6
METAR K6R6 020553Z AUTO 13006KT 24/20 A2999 RMK AO1 SLP119 T02390200
10311 20239 403330228 50006





000
SAUS44 KMAF 020454
MTR6R6
METAR K6R6 020453Z AUTO 11009KT 25/20 A3001 RMK AO1 SLP124 T02500200





000
SAUS44 KMAF 020454
MTR6R6
METAR K6R6 020453Z AUTO 11009KT 25/20 A3001 RMK AO1 SLP124 T02500200





000
SAUS44 KMAF 020354
MTR6R6
METAR K6R6 020353Z AUTO 12008G15KT 26/19 A2999 RMK AO1 SLP120
T02610194





000
SAUS44 KMAF 020254
MTR6R6
METAR K6R6 020253Z AUTO 12009G15KT 27/18 A2997 RMK AO1 SLP114
T02720183 53009





000
SAUS44 KMAF 020154
MTR6R6
METAR K6R6 020153Z AUTO 14007KT 29/18 A2996 RMK AO1 SLP109 T02890183





000
SAUS44 KMAF 020154
MTR6R6
METAR K6R6 020153Z AUTO 14007KT 29/18 A2996 RMK AO1 SLP109 T02890183





000
SAUS44 KMAF 020054
MTR6R6
METAR K6R6 020053Z AUTO 14009G17KT 30/18 A2995 RMK AO1 SLP104
T03000183





000
SAUS44 KMAF 012354
MTR6R6
METAR K6R6 012353Z AUTO 13012G21KT 31/19 A2994 RMK AO1 SLP102
T03110189 10333 20294 56011





000
SAUS44 KMAF 012254
MTR6R6
METAR K6R6 012253Z AUTO 11009KT 32/18 A2995 RMK AO1 SLP103 T03220178





000
SAUS44 KMAF 012254
MTR6R6
METAR K6R6 012253Z AUTO 11009KT 32/18 A2995 RMK AO1 SLP103 T03220178





000
SAUS44 KMAF 012154
MTR6R6
METAR K6R6 012153Z AUTO VRB05G15KT 33/18 A2996 RMK AO1 SLP108
T03280183





000
SAUS44 KMAF 012154
MTR6R6
METAR K6R6 012153Z AUTO VRB05G15KT 33/18 A2996 RMK AO1 SLP108
T03280183





000
SAUS44 KMAF 012054
MTR6R6
METAR K6R6 012053Z AUTO 12008G19KT 33/18 A2998 RMK AO1 SLP113
T03280183 58020





000
SAUS44 KMAF 011954
MTR6R6
METAR K6R6 011953Z AUTO VRB06G16KT 32/18 A3000 RMK AO1 SLP121
T03220183





000
SAUS44 KMAF 011854
MTR6R6
METAR K6R6 011853Z AUTO 16008G17KT 31/19 A3003 RMK AO1 SLP130
T03110189





000
SAUS44 KMAF 011854
MTR6R6
METAR K6R6 011853Z AUTO 16008G17KT 31/19 A3003 RMK AO1 SLP130
T03110189





000
SAUS44 KMAF 011754
MTR6R6
METAR K6R6 011753Z AUTO 14007G16KT 29/19 A3004 RMK AO1 SLP135
T02940194 10300 20228 58007





000
SAUS44 KMAF 011754
MTR6R6
METAR K6R6 011753Z AUTO 14007G16KT 29/19 A3004 RMK AO1 SLP135
T02940194 10300 20228 58007





000
SAUS44 KMAF 011657 COR
MTRGDP
METAR KGDP 011651Z AUTO 23006KT 9SM CLR 26/14 A3021 RMK AO2 SLP150
T02560139





000
SAUS44 KMAF 011654
MTR6R6
METAR K6R6 011653Z AUTO 15008KT 28/20 A3005 RMK AO1 SLP139 T02830200





000
SAUS44 KMAF 011554
MTR6R6
METAR K6R6 011553Z AUTO 17007KT 24/20 A3007 RMK AO1 SLP148 T02440200





000
SAUS44 KMAF 011454
MTR6R6
METAR K6R6 011453Z AUTO 16008KT 23/20 A3006 RMK AO1 SLP147 T02330200
50005





000
SAUS44 KMAF 011454
MTR6R6
METAR K6R6 011453Z AUTO 16008KT 23/20 A3006 RMK AO1 SLP147 T02330200
50005





000
SAUS44 KMAF 011354
MTR6R6
METAR K6R6 011353Z AUTO 18006KT 23/20 A3007 RMK AO1 SLP146 T02330200





000
SAUS44 KMAF 011254
MTR6R6
METAR K6R6 011253Z AUTO 17007KT 23/20 A3005 RMK AO1 SLP140 T02280200





000
SAUS44 KMAF 011254
MTR6R6
METAR K6R6 011253Z AUTO 17007KT 23/20 A3005 RMK AO1 SLP140 T02280200





000
SAUS44 KMAF 011154
MTR6R6
METAR K6R6 011153Z AUTO VRB06KT 23/20 A3005 RMK AO1 SLP138 T02280200
10244 20228 53004





000
SAUS44 KMAF 011154
MTR6R6
METAR K6R6 011153Z AUTO VRB06KT 23/20 A3005 RMK AO1 SLP138 T02280200
10244 20228 53004





    US Dept of Commerce
    National Oceanic and Atmospheric Administration
    National Weather Service
    1325 East West Highway
    Silver Spring, MD 20910
    Page Author: NWS Internet Services Team
Disclaimer
Information Quality
Credits
Glossary
Privacy Policy
Freedom of Information Act (FOIA)
About Us
Career Opportunities